sensor_id;sensor_type;location;lat;lon;timestamp;pressure;altitude;pressure_sealevel;temperature;humidity
37904;BME280;23738;50.422;18.758;2023-03-26T00:00:24;97526.98;;;7.70;67.77
37904;BME280;23738;50.422;18.758;2023-03-26T00:02:51;97521.59;;;7.66;67.81
37904;BME280;23738;50.422;18.758;2023-03-26T00:05:19;97526.08;;;7.61;67.93
37904;BME280;23738;50.422;18.758;2023-03-26T00:07:47;97522.17;;;7.56;67.71
37904;BME280;23738;50.422;18.758;2023-03-26T00:10:14;97519.55;;;7.54;68.17
37904;BME280;23738;50.422;18.758;2023-03-26T00:12:42;97521.25;;;7.51;67.89
37904;BME280;23738;50.422;18.758;2023-03-26T00:15:10;97516.91;;;7.51;68.11
37904;BME280;23738;50.422;18.758;2023-03-26T00:17:37;97513.44;;;7.51;68.21
37904;BME280;23738;50.422;18.758;2023-03-26T00:20:07;97512.39;;;7.51;68.31
37904;BME280;23738;50.422;18.758;2023-03-26T00:22:34;97517.23;;;7.51;68.27
37904;BME280;23738;50.422;18.758;2023-03-26T00:25:02;97516.37;;;7.49;68.31
37904;BME280;23738;50.422;18.758;2023-03-26T00:27:29;97511.96;;;7.45;68.62
37904;BME280;23738;50.422;18.758;2023-03-26T00:29:56;97509.95;;;7.44;68.55
37904;BME280;23738;50.422;18.758;2023-03-26T00:32:25;97510.20;;;7.41;68.59
37904;BME280;23738;50.422;18.758;2023-03-26T00:34:54;97507.12;;;7.38;68.82
37904;BME280;23738;50.422;18.758;2023-03-26T00:37:22;97505.50;;;7.38;68.43
37904;BME280;23738;50.422;18.758;2023-03-26T00:39:52;97498.52;;;7.40;68.60
37904;BME280;23738;50.422;18.758;2023-03-26T00:42:20;97496.92;;;7.43;68.88
37904;BME280;23738;50.422;18.758;2023-03-26T00:44:47;97495.41;;;7.45;68.93
37904;BME280;23738;50.422;18.758;2023-03-26T00:47:16;97492.36;;;7.45;69.25
37904;BME280;23738;50.422;18.758;2023-03-26T00:49:43;97487.05;;;7.44;69.01
37904;BME280;23738;50.422;18.758;2023-03-26T00:52:12;97482.11;;;7.40;69.22
37904;BME280;23738;50.422;18.758;2023-03-26T00:54:40;97484.41;;;7.36;69.22
37904;BME280;23738;50.422;18.758;2023-03-26T00:57:08;97482.89;;;7.33;69.31
37904;BME280;23738;50.422;18.758;2023-03-26T00:59:36;97477.63;;;7.31;69.08
37904;BME280;23738;50.422;18.758;2023-03-26T01:02:04;97481.18;;;7.33;69.38
37904;BME280;23738;50.422;18.758;2023-03-26T01:04:33;97478.39;;;7.34;69.34
37904;BME280;23738;50.422;18.758;2023-03-26T01:07:04;97477.59;;;7.32;69.29
37904;BME280;23738;50.422;18.758;2023-03-26T01:09:39;97476.97;;;7.29;69.48
37904;BME280;23738;50.422;18.758;2023-03-26T01:12:10;97475.65;;;7.23;69.66
37904;BME280;23738;50.422;18.758;2023-03-26T01:14:39;97471.45;;;7.15;69.51
37904;BME280;23738;50.422;18.758;2023-03-26T01:17:07;97473.48;;;7.08;69.40
37904;BME280;23738;50.422;18.758;2023-03-26T01:19:41;97470.94;;;7.01;69.49
37904;BME280;23738;50.422;18.758;2023-03-26T01:22:14;97472.27;;;6.89;69.38
37904;BME280;23738;50.422;18.758;2023-03-26T01:24:42;97475.66;;;6.81;69.63
37904;BME280;23738;50.422;18.758;2023-03-26T01:27:21;97476.01;;;6.74;69.40
37904;BME280;23738;50.422;18.758;2023-03-26T01:29:53;97477.02;;;6.69;69.20
37904;BME280;23738;50.422;18.758;2023-03-26T01:32:29;97472.20;;;6.66;69.62
37904;BME280;23738;50.422;18.758;2023-03-26T01:35:09;97475.63;;;6.66;69.68
37904;BME280;23738;50.422;18.758;2023-03-26T01:37:45;97473.25;;;6.63;69.47
37904;BME280;23738;50.422;18.758;2023-03-26T01:40:22;97475.42;;;6.58;69.66
37904;BME280;23738;50.422;18.758;2023-03-26T01:42:57;97474.39;;;6.49;69.73
37904;BME280;23738;50.422;18.758;2023-03-26T01:45:30;97475.95;;;6.41;69.91
37904;BME280;23738;50.422;18.758;2023-03-26T01:48:00;97479.20;;;6.39;69.63
37904;BME280;23738;50.422;18.758;2023-03-26T01:50:27;97481.10;;;6.35;69.79
37904;BME280;23738;50.422;18.758;2023-03-26T01:52:55;97476.55;;;6.36;70.09
37904;BME280;23738;50.422;18.758;2023-03-26T01:55:26;97477.11;;;6.37;69.95
37904;BME280;23738;50.422;18.758;2023-03-26T01:58:05;97476.52;;;6.38;70.24
37904;BME280;23738;50.422;18.758;2023-03-26T02:00:36;97481.67;;;6.42;70.31
37904;BME280;23738;50.422;18.758;2023-03-26T02:03:15;97492.48;;;6.45;70.56
37904;BME280;23738;50.422;18.758;2023-03-26T02:05:51;97494.85;;;6.44;70.54
37904;BME280;23738;50.422;18.758;2023-03-26T02:08:23;97495.23;;;6.41;70.45
37904;BME280;23738;50.422;18.758;2023-03-26T02:10:53;97490.59;;;6.40;71.01
37904;BME280;23738;50.422;18.758;2023-03-26T02:13:23;97476.98;;;6.40;70.96
37904;BME280;23738;50.422;18.758;2023-03-26T02:15:55;97457.86;;;6.41;71.06
37904;BME280;23738;50.422;18.758;2023-03-26T02:18:23;97459.86;;;6.44;70.94
37904;BME280;23738;50.422;18.758;2023-03-26T02:20:51;97465.55;;;6.50;71.18
37904;BME280;23738;50.422;18.758;2023-03-26T02:23:19;97455.50;;;6.54;71.28
37904;BME280;23738;50.422;18.758;2023-03-26T02:25:46;97451.52;;;6.58;71.50
37904;BME280;23738;50.422;18.758;2023-03-26T02:28:14;97443.05;;;6.61;71.61
37904;BME280;23738;50.422;18.758;2023-03-26T02:30:42;97441.61;;;6.61;71.73
37904;BME280;23738;50.422;18.758;2023-03-26T02:33:11;97436.31;;;6.61;71.96
37904;BME280;23738;50.422;18.758;2023-03-26T02:35:41;97441.39;;;6.60;71.95
37904;BME280;23738;50.422;18.758;2023-03-26T02:38:11;97437.84;;;6.63;71.76
37904;BME280;23738;50.422;18.758;2023-03-26T02:40:40;97435.02;;;6.67;71.86
37904;BME280;23738;50.422;18.758;2023-03-26T02:43:07;97437.13;;;6.69;71.87
37904;BME280;23738;50.422;18.758;2023-03-26T02:45:35;97440.42;;;6.72;72.29
37904;BME280;23738;50.422;18.758;2023-03-26T02:48:02;97437.45;;;6.73;72.31
37904;BME280;23738;50.422;18.758;2023-03-26T02:50:30;97434.02;;;6.74;72.26
37904;BME280;23738;50.422;18.758;2023-03-26T02:52:58;97437.72;;;6.73;72.36
37904;BME280;23738;50.422;18.758;2023-03-26T02:55:25;97445.70;;;6.72;72.18
37904;BME280;23738;50.422;18.758;2023-03-26T02:57:52;97437.19;;;6.71;72.16
37904;BME280;23738;50.422;18.758;2023-03-26T03:00:20;97436.22;;;6.72;72.49
37904;BME280;23738;50.422;18.758;2023-03-26T03:02:48;97436.42;;;6.72;72.45
37904;BME280;23738;50.422;18.758;2023-03-26T03:05:16;97438.28;;;6.72;72.71
37904;BME280;23738;50.422;18.758;2023-03-26T03:07:44;97440.11;;;6.74;72.86
37904;BME280;23738;50.422;18.758;2023-03-26T03:10:13;97437.77;;;6.75;72.93
37904;BME280;23738;50.422;18.758;2023-03-26T03:12:41;97433.16;;;6.71;72.66
37904;BME280;23738;50.422;18.758;2023-03-26T03:15:10;97431.91;;;6.69;72.58
37904;BME280;23738;50.422;18.758;2023-03-26T03:17:38;97427.31;;;6.68;72.74
37904;BME280;23738;50.422;18.758;2023-03-26T03:20:08;97429.17;;;6.70;72.79
37904;BME280;23738;50.422;18.758;2023-03-26T03:22:35;97431.39;;;6.70;72.79
37904;BME280;23738;50.422;18.758;2023-03-26T03:25:03;97429.98;;;6.69;72.91
37904;BME280;23738;50.422;18.758;2023-03-26T03:27:31;97426.78;;;6.67;72.99
37904;BME280;23738;50.422;18.758;2023-03-26T03:29:58;97426.78;;;6.64;72.93
37904;BME280;23738;50.422;18.758;2023-03-26T03:32:25;97430.42;;;6.62;73.11
37904;BME280;23738;50.422;18.758;2023-03-26T03:34:53;97430.30;;;6.62;72.99
37904;BME280;23738;50.422;18.758;2023-03-26T03:37:20;97427.75;;;6.62;73.16
37904;BME280;23738;50.422;18.758;2023-03-26T03:39:48;97433.11;;;6.64;73.05
37904;BME280;23738;50.422;18.758;2023-03-26T03:42:16;97434.13;;;6.67;73.30
37904;BME280;23738;50.422;18.758;2023-03-26T03:44:43;97438.85;;;6.71;73.27
37904;BME280;23738;50.422;18.758;2023-03-26T03:47:10;97446.36;;;6.72;73.69
37904;BME280;23738;50.422;18.758;2023-03-26T03:49:39;97446.85;;;6.70;73.78
37904;BME280;23738;50.422;18.758;2023-03-26T03:52:06;97453.03;;;6.68;73.96
37904;BME280;23738;50.422;18.758;2023-03-26T03:54:34;97454.55;;;6.66;74.00
37904;BME280;23738;50.422;18.758;2023-03-26T03:57:01;97449.10;;;6.65;74.37
37904;BME280;23738;50.422;18.758;2023-03-26T03:59:29;97448.17;;;6.66;74.42
37904;BME280;23738;50.422;18.758;2023-03-26T04:01:56;97441.52;;;6.69;74.23
37904;BME280;23738;50.422;18.758;2023-03-26T04:04:23;97438.12;;;6.72;74.52
37904;BME280;23738;50.422;18.758;2023-03-26T04:06:51;97437.52;;;6.73;74.32
37904;BME280;23738;50.422;18.758;2023-03-26T04:09:18;97438.65;;;6.75;74.28
37904;BME280;23738;50.422;18.758;2023-03-26T04:11:45;97440.44;;;6.77;74.04
37904;BME280;23738;50.422;18.758;2023-03-26T04:14:13;97433.04;;;6.80;74.33
37904;BME280;23738;50.422;18.758;2023-03-26T04:16:40;97440.15;;;6.86;74.27
37904;BME280;23738;50.422;18.758;2023-03-26T04:19:07;97441.16;;;6.90;74.61
37904;BME280;23738;50.422;18.758;2023-03-26T04:21:34;97444.04;;;6.91;74.23
37904;BME280;23738;50.422;18.758;2023-03-26T04:24:04;97443.02;;;6.92;74.50
37904;BME280;23738;50.422;18.758;2023-03-26T04:26:32;97440.80;;;6.92;74.64
37904;BME280;23738;50.422;18.758;2023-03-26T04:29:03;97444.20;;;6.93;74.58
37904;BME280;23738;50.422;18.758;2023-03-26T04:31:31;97447.06;;;6.92;74.48
37904;BME280;23738;50.422;18.758;2023-03-26T04:34:06;97444.04;;;6.93;74.62
37904;BME280;23738;50.422;18.758;2023-03-26T04:36:33;97444.20;;;6.98;74.56
37904;BME280;23738;50.422;18.758;2023-03-26T04:39:02;97441.30;;;7.01;74.72
37904;BME280;23738;50.422;18.758;2023-03-26T04:41:30;97440.58;;;7.04;74.97
37904;BME280;23738;50.422;18.758;2023-03-26T04:43:58;97435.95;;;7.06;74.92
37904;BME280;23738;50.422;18.758;2023-03-26T04:46:27;97433.59;;;7.05;74.73
37904;BME280;23738;50.422;18.758;2023-03-26T04:48:59;97432.12;;;7.02;74.69
37904;BME280;23738;50.422;18.758;2023-03-26T04:51:34;97434.14;;;7.01;74.86
37904;BME280;23738;50.422;18.758;2023-03-26T04:54:04;97437.89;;;7.02;74.62
37904;BME280;23738;50.422;18.758;2023-03-26T04:56:38;97437.15;;;7.05;74.76
37904;BME280;23738;50.422;18.758;2023-03-26T04:59:10;97435.57;;;7.05;74.66
37904;BME280;23738;50.422;18.758;2023-03-26T05:01:40;97438.09;;;7.06;74.94
37904;BME280;23738;50.422;18.758;2023-03-26T05:04:11;97441.44;;;7.08;74.74
37904;BME280;23738;50.422;18.758;2023-03-26T05:06:39;97442.48;;;7.05;75.02
37904;BME280;23738;50.422;18.758;2023-03-26T05:09:07;97438.73;;;7.02;74.85
37904;BME280;23738;50.422;18.758;2023-03-26T05:11:36;97443.92;;;7.01;74.87
37904;BME280;23738;50.422;18.758;2023-03-26T05:14:03;97441.73;;;7.01;74.88
37904;BME280;23738;50.422;18.758;2023-03-26T05:16:31;97444.56;;;7.01;74.97
37904;BME280;23738;50.422;18.758;2023-03-26T05:18:59;97446.38;;;7.00;75.29
37904;BME280;23738;50.422;18.758;2023-03-26T05:21:26;97442.26;;;7.01;75.03
37904;BME280;23738;50.422;18.758;2023-03-26T05:23:53;97446.90;;;7.03;74.98
37904;BME280;23738;50.422;18.758;2023-03-26T05:26:20;97443.90;;;7.07;75.13
37904;BME280;23738;50.422;18.758;2023-03-26T05:28:49;97449.23;;;7.07;75.34
37904;BME280;23738;50.422;18.758;2023-03-26T05:31:18;97447.73;;;7.12;75.17
37904;BME280;23738;50.422;18.758;2023-03-26T05:33:47;97437.15;;;7.14;75.06
37904;BME280;23738;50.422;18.758;2023-03-26T05:36:15;97440.36;;;7.18;75.12
37904;BME280;23738;50.422;18.758;2023-03-26T05:38:43;97439.71;;;7.19;75.39
37904;BME280;23738;50.422;18.758;2023-03-26T05:41:13;97439.88;;;7.19;75.47
37904;BME280;23738;50.422;18.758;2023-03-26T05:43:41;97444.25;;;7.19;75.31
37904;BME280;23738;50.422;18.758;2023-03-26T05:46:10;97444.34;;;7.21;74.75
37904;BME280;23738;50.422;18.758;2023-03-26T05:48:38;97445.31;;;7.25;75.01
37904;BME280;23738;50.422;18.758;2023-03-26T05:51:07;97444.73;;;7.30;75.11
37904;BME280;23738;50.422;18.758;2023-03-26T05:53:34;97440.71;;;7.37;75.20
37904;BME280;23738;50.422;18.758;2023-03-26T05:56:02;97435.84;;;7.46;75.14
37904;BME280;23738;50.422;18.758;2023-03-26T05:58:31;97442.23;;;7.62;74.85
37904;BME280;23738;50.422;18.758;2023-03-26T06:01:00;97442.14;;;7.73;75.19
37904;BME280;23738;50.422;18.758;2023-03-26T06:03:31;97443.23;;;7.75;74.90
37904;BME280;23738;50.422;18.758;2023-03-26T06:05:59;97442.77;;;7.77;75.02
37904;BME280;23738;50.422;18.758;2023-03-26T06:08:26;97442.41;;;7.80;75.10
37904;BME280;23738;50.422;18.758;2023-03-26T06:10:58;97442.98;;;7.85;74.74
37904;BME280;23738;50.422;18.758;2023-03-26T06:13:27;97441.02;;;7.86;74.70
37904;BME280;23738;50.422;18.758;2023-03-26T06:15:54;97443.86;;;7.92;75.01
37904;BME280;23738;50.422;18.758;2023-03-26T06:18:23;97444.85;;;7.96;74.70
37904;BME280;23738;50.422;18.758;2023-03-26T06:20:51;97444.52;;;7.97;74.47
37904;BME280;23738;50.422;18.758;2023-03-26T06:23:19;97442.60;;;7.98;74.58
37904;BME280;23738;50.422;18.758;2023-03-26T06:25:46;97443.62;;;7.99;74.62
37904;BME280;23738;50.422;18.758;2023-03-26T06:28:14;97443.58;;;8.02;74.58
37904;BME280;23738;50.422;18.758;2023-03-26T06:30:41;97444.63;;;8.02;74.44
37904;BME280;23738;50.422;18.758;2023-03-26T06:33:09;97446.25;;;7.99;74.19
37904;BME280;23738;50.422;18.758;2023-03-26T06:35:36;97453.79;;;7.98;74.30
37904;BME280;23738;50.422;18.758;2023-03-26T06:38:03;97455.59;;;7.96;74.37
37904;BME280;23738;50.422;18.758;2023-03-26T06:40:33;97448.98;;;7.93;74.25
37904;BME280;23738;50.422;18.758;2023-03-26T06:43:00;97449.52;;;7.93;74.10
37904;BME280;23738;50.422;18.758;2023-03-26T06:45:28;97449.07;;;7.95;74.33
37904;BME280;23738;50.422;18.758;2023-03-26T06:47:55;97454.50;;;8.00;74.23
37904;BME280;23738;50.422;18.758;2023-03-26T06:50:23;97457.98;;;8.00;74.10
37904;BME280;23738;50.422;18.758;2023-03-26T06:52:52;97454.83;;;7.99;73.99
37904;BME280;23738;50.422;18.758;2023-03-26T06:55:20;97454.94;;;7.99;74.14
37904;BME280;23738;50.422;18.758;2023-03-26T06:57:48;97454.25;;;7.99;74.06
37904;BME280;23738;50.422;18.758;2023-03-26T07:00:17;97458.52;;;7.98;73.96
37904;BME280;23738;50.422;18.758;2023-03-26T07:02:45;97458.64;;;7.98;74.02
37904;BME280;23738;50.422;18.758;2023-03-26T07:05:13;97458.83;;;8.01;73.97
37904;BME280;23738;50.422;18.758;2023-03-26T07:07:40;97462.00;;;8.08;73.98
37904;BME280;23738;50.422;18.758;2023-03-26T07:10:09;97464.48;;;8.14;73.93
37904;BME280;23738;50.422;18.758;2023-03-26T07:12:37;97463.88;;;8.21;73.85
37904;BME280;23738;50.422;18.758;2023-03-26T07:15:07;97469.60;;;8.28;73.82
37904;BME280;23738;50.422;18.758;2023-03-26T07:17:34;97470.45;;;8.28;73.76
37904;BME280;23738;50.422;18.758;2023-03-26T07:20:03;97474.41;;;8.26;73.84
37904;BME280;23738;50.422;18.758;2023-03-26T07:22:31;97470.33;;;8.27;73.74
37904;BME280;23738;50.422;18.758;2023-03-26T07:25:00;97468.58;;;8.34;73.96
37904;BME280;23738;50.422;18.758;2023-03-26T07:27:41;97466.16;;;8.46;73.95
37904;BME280;23738;50.422;18.758;2023-03-26T07:30:14;97465.04;;;8.57;73.85
37904;BME280;23738;50.422;18.758;2023-03-26T07:32:48;97460.89;;;8.72;74.03
37904;BME280;23738;50.422;18.758;2023-03-26T07:35:19;97460.18;;;8.86;73.90
37904;BME280;23738;50.422;18.758;2023-03-26T07:37:57;97460.20;;;8.94;73.74
37904;BME280;23738;50.422;18.758;2023-03-26T07:40:44;97462.28;;;9.00;73.63
37904;BME280;23738;50.422;18.758;2023-03-26T07:43:22;97462.36;;;9.07;73.69
37904;BME280;23738;50.422;18.758;2023-03-26T07:45:55;97460.08;;;9.15;73.45
37904;BME280;23738;50.422;18.758;2023-03-26T07:48:24;97464.80;;;9.20;73.03
37904;BME280;23738;50.422;18.758;2023-03-26T07:50:54;97466.33;;;9.23;72.93
37904;BME280;23738;50.422;18.758;2023-03-26T07:53:23;97463.61;;;9.25;72.69
37904;BME280;23738;50.422;18.758;2023-03-26T07:55:54;97469.85;;;9.27;72.46
37904;BME280;23738;50.422;18.758;2023-03-26T07:58:40;97467.16;;;9.26;72.21
37904;BME280;23738;50.422;18.758;2023-03-26T08:01:15;97470.25;;;9.29;72.64
37904;BME280;23738;50.422;18.758;2023-03-26T08:04:01;97469.33;;;9.33;71.79
37904;BME280;23738;50.422;18.758;2023-03-26T08:06:34;97468.80;;;9.33;71.81
37904;BME280;23738;50.422;18.758;2023-03-26T08:09:10;97464.73;;;9.37;72.03
37904;BME280;23738;50.422;18.758;2023-03-26T08:11:46;97469.41;;;9.44;72.23
37904;BME280;23738;50.422;18.758;2023-03-26T08:14:42;97469.23;;;9.51;71.90
37904;BME280;23738;50.422;18.758;2023-03-26T08:17:29;97467.63;;;9.52;71.27
37904;BME280;23738;50.422;18.758;2023-03-26T08:20:09;97467.51;;;9.53;71.39
37904;BME280;23738;50.422;18.758;2023-03-26T08:22:45;97462.92;;;9.53;71.06
37904;BME280;23738;50.422;18.758;2023-03-26T08:25:26;97459.59;;;9.54;71.13
37904;BME280;23738;50.422;18.758;2023-03-26T08:28:04;97453.77;;;9.59;70.99
37904;BME280;23738;50.422;18.758;2023-03-26T08:30:35;97450.64;;;9.68;71.08
37904;BME280;23738;50.422;18.758;2023-03-26T08:33:12;97451.63;;;9.80;71.74
37904;BME280;23738;50.422;18.758;2023-03-26T08:35:42;97455.30;;;9.99;71.65
37904;BME280;23738;50.422;18.758;2023-03-26T08:38:10;97454.16;;;10.17;71.23
37904;BME280;23738;50.422;18.758;2023-03-26T08:40:56;97447.55;;;10.28;70.86
37904;BME280;23738;50.422;18.758;2023-03-26T08:43:37;97442.60;;;10.36;71.03
37904;BME280;23738;50.422;18.758;2023-03-26T08:46:35;97442.16;;;10.42;70.57
37904;BME280;23738;50.422;18.758;2023-03-26T08:52:55;97442.45;;;10.34;69.57
37904;BME280;23738;50.422;18.758;2023-03-26T08:55:40;97441.45;;;10.31;69.87
37904;BME280;23738;50.422;18.758;2023-03-26T09:08:04;97448.32;;;10.37;69.40
37904;BME280;23738;50.422;18.758;2023-03-26T09:10:50;97447.89;;;10.32;68.91
37904;BME280;23738;50.422;18.758;2023-03-26T09:13:48;97446.16;;;10.25;69.09
37904;BME280;23738;50.422;18.758;2023-03-26T09:16:47;97445.98;;;10.17;69.51
37904;BME280;23738;50.422;18.758;2023-03-26T09:22:44;97444.94;;;10.07;69.61
37904;BME280;23738;50.422;18.758;2023-03-26T09:28:34;97442.08;;;9.96;69.83
37904;BME280;23738;50.422;18.758;2023-03-26T09:34:02;97441.63;;;10.02;69.95
37904;BME280;23738;50.422;18.758;2023-03-26T09:36:52;97444.15;;;10.12;70.11
37904;BME280;23738;50.422;18.758;2023-03-26T09:39:33;97437.02;;;10.19;69.97
37904;BME280;23738;50.422;18.758;2023-03-26T09:42:10;97430.52;;;10.28;70.21
37904;BME280;23738;50.422;18.758;2023-03-26T09:44:58;97434.39;;;10.45;69.94
37904;BME280;23738;50.422;18.758;2023-03-26T09:50:45;97442.88;;;10.57;69.92
37904;BME280;23738;50.422;18.758;2023-03-26T09:53:46;97453.61;;;10.56;69.82
37904;BME280;23738;50.422;18.758;2023-03-26T09:56:26;97457.00;;;10.43;69.57
37904;BME280;23738;50.422;18.758;2023-03-26T09:59:21;97462.33;;;10.20;69.76
37904;BME280;23738;50.422;18.758;2023-03-26T10:01:57;97462.39;;;9.84;69.60
37904;BME280;23738;50.422;18.758;2023-03-26T10:04:40;97465.13;;;9.55;70.12
37904;BME280;23738;50.422;18.758;2023-03-26T10:07:23;97453.77;;;9.35;70.40
37904;BME280;23738;50.422;18.758;2023-03-26T10:09:57;97444.29;;;9.35;70.76
37904;BME280;23738;50.422;18.758;2023-03-26T10:12:32;97439.88;;;9.57;71.03
37904;BME280;23738;50.422;18.758;2023-03-26T10:15:17;97435.72;;;9.74;71.26
37904;BME280;23738;50.422;18.758;2023-03-26T10:17:57;97428.17;;;10.01;71.63
37904;BME280;23738;50.422;18.758;2023-03-26T10:20:36;97418.80;;;10.53;72.07
37904;BME280;23738;50.422;18.758;2023-03-26T10:23:25;97420.16;;;10.96;72.72
37904;BME280;23738;50.422;18.758;2023-03-26T10:26:04;97422.10;;;11.46;72.45
37904;BME280;23738;50.422;18.758;2023-03-26T10:28:52;97418.02;;;11.70;72.42
37904;BME280;23738;50.422;18.758;2023-03-26T10:31:37;97418.11;;;12.08;72.31
37904;BME280;23738;50.422;18.758;2023-03-26T10:37:02;97407.92;;;12.41;70.84
37904;BME280;23738;50.422;18.758;2023-03-26T10:39:45;97408.64;;;12.24;70.53
37904;BME280;23738;50.422;18.758;2023-03-26T10:42:30;97401.09;;;12.17;71.05
37904;BME280;23738;50.422;18.758;2023-03-26T15:19:48;97178.30;;;11.46;63.31
37904;BME280;23738;50.422;18.758;2023-03-26T15:22:49;97174.00;;;11.45;63.39
37904;BME280;23738;50.422;18.758;2023-03-26T15:28:49;97158.02;;;11.55;63.41
37904;BME280;23738;50.422;18.758;2023-03-26T15:31:53;97155.86;;;11.63;63.42
37904;BME280;23738;50.422;18.758;2023-03-26T15:34:58;97155.03;;;11.72;63.48
37904;BME280;23738;50.422;18.758;2023-03-26T15:38:14;97154.08;;;11.82;63.54
37904;BME280;23738;50.422;18.758;2023-03-26T15:40:56;97156.33;;;11.90;63.80
37904;BME280;23738;50.422;18.758;2023-03-26T15:44:08;97153.09;;;11.93;63.72
37904;BME280;23738;50.422;18.758;2023-03-26T15:46:58;97151.57;;;11.94;63.77
37904;BME280;23738;50.422;18.758;2023-03-26T15:49:37;97151.98;;;11.94;63.94
37904;BME280;23738;50.422;18.758;2023-03-26T15:52:18;97155.17;;;11.94;64.00
37904;BME280;23738;50.422;18.758;2023-03-26T15:54:58;97151.77;;;11.94;64.08
37904;BME280;23738;50.422;18.758;2023-03-26T15:57:32;97149.82;;;11.94;64.20
37904;BME280;23738;50.422;18.758;2023-03-26T16:11:57;97135.90;;;12.11;63.36
37904;BME280;23738;50.422;18.758;2023-03-26T16:14:43;97135.84;;;12.04;63.41
37904;BME280;23738;50.422;18.758;2023-03-26T16:31:26;97130.36;;;11.45;63.77
37904;BME280;23738;50.422;18.758;2023-03-26T16:34:26;97131.92;;;11.31;63.97
37904;BME280;23738;50.422;18.758;2023-03-26T16:36:59;97131.62;;;11.23;63.96
37904;BME280;23738;50.422;18.758;2023-03-26T16:39:42;97127.22;;;11.16;64.02
37904;BME280;23738;50.422;18.758;2023-03-26T16:42:36;97118.70;;;11.08;64.09
37904;BME280;23738;50.422;18.758;2023-03-26T16:45:23;97122.55;;;11.10;63.93
37904;BME280;23738;50.422;18.758;2023-03-26T16:48:05;97120.89;;;11.06;64.14
37904;BME280;23738;50.422;18.758;2023-03-26T16:50:44;97121.60;;;10.99;64.20
37904;BME280;23738;50.422;18.758;2023-03-26T16:53:32;97120.21;;;10.92;64.24
37904;BME280;23738;50.422;18.758;2023-03-26T16:56:13;97119.88;;;10.83;64.43
37904;BME280;23738;50.422;18.758;2023-03-26T16:58:53;97121.40;;;10.74;64.33
37904;BME280;23738;50.422;18.758;2023-03-26T17:01:32;97123.50;;;10.68;64.51
37904;BME280;23738;50.422;18.758;2023-03-26T17:04:05;97123.59;;;10.60;64.48
37904;BME280;23738;50.422;18.758;2023-03-26T17:09:45;97118.67;;;10.39;64.63
37904;BME280;23738;50.422;18.758;2023-03-26T17:12:26;97127.48;;;10.26;64.86
37904;BME280;23738;50.422;18.758;2023-03-26T17:15:09;97129.61;;;10.18;64.89
37904;BME280;23738;50.422;18.758;2023-03-26T17:18:10;97131.54;;;10.14;65.04
37904;BME280;23738;50.422;18.758;2023-03-26T17:20:52;97131.06;;;10.06;64.99
37904;BME280;23738;50.422;18.758;2023-03-26T17:23:33;97129.50;;;10.00;65.02
37904;BME280;23738;50.422;18.758;2023-03-26T17:26:11;97128.64;;;9.97;65.15
37904;BME280;23738;50.422;18.758;2023-03-26T17:29:02;97129.23;;;9.97;65.13
37904;BME280;23738;50.422;18.758;2023-03-26T17:31:42;97130.70;;;9.93;65.23
37904;BME280;23738;50.422;18.758;2023-03-26T17:34:54;97132.57;;;9.86;65.54
37904;BME280;23738;50.422;18.758;2023-03-26T17:37:50;97124.04;;;9.72;65.40
37904;BME280;23738;50.422;18.758;2023-03-26T17:40:47;97133.73;;;9.65;65.55
37904;BME280;23738;50.422;18.758;2023-03-26T17:43:50;97138.45;;;9.53;65.46
37904;BME280;23738;50.422;18.758;2023-03-26T17:46:33;97144.09;;;9.42;65.65
37904;BME280;23738;50.422;18.758;2023-03-26T17:49:11;97145.59;;;9.31;65.72
37904;BME280;23738;50.422;18.758;2023-03-26T17:51:49;97140.16;;;9.20;65.58
37904;BME280;23738;50.422;18.758;2023-03-26T17:54:26;97138.86;;;9.17;65.65
37904;BME280;23738;50.422;18.758;2023-03-26T17:57:01;97137.21;;;9.16;65.95
37904;BME280;23738;50.422;18.758;2023-03-26T17:59:32;97138.60;;;9.18;66.11
37904;BME280;23738;50.422;18.758;2023-03-26T18:02:04;97139.05;;;9.14;66.10
37904;BME280;23738;50.422;18.758;2023-03-26T18:04:42;97137.60;;;9.11;66.17
37904;BME280;23738;50.422;18.758;2023-03-26T18:07:47;97138.07;;;9.03;66.25
37904;BME280;23738;50.422;18.758;2023-03-26T18:10:36;97137.52;;;8.89;66.26
37904;BME280;23738;50.422;18.758;2023-03-26T18:16:10;97137.61;;;8.76;66.38
37904;BME280;23738;50.422;18.758;2023-03-26T18:18:46;97138.89;;;8.71;66.30
37904;BME280;23738;50.422;18.758;2023-03-26T18:21:22;97134.48;;;8.63;66.35
37904;BME280;23738;50.422;18.758;2023-03-26T18:23:53;97137.71;;;8.61;66.43
37904;BME280;23738;50.422;18.758;2023-03-26T18:26:30;97137.98;;;8.60;66.39
37904;BME280;23738;50.422;18.758;2023-03-26T18:29:16;97139.26;;;8.57;66.58
37904;BME280;23738;50.422;18.758;2023-03-26T18:31:48;97135.77;;;8.52;66.49
37904;BME280;23738;50.422;18.758;2023-03-26T18:34:21;97133.80;;;8.48;66.66
37904;BME280;23738;50.422;18.758;2023-03-26T18:37:13;97132.10;;;8.44;66.63
37904;BME280;23738;50.422;18.758;2023-03-26T18:39:57;97132.14;;;8.34;66.55
37904;BME280;23738;50.422;18.758;2023-03-26T18:42:29;97130.70;;;8.26;66.54
37904;BME280;23738;50.422;18.758;2023-03-26T18:45:00;97131.17;;;8.19;66.65
37904;BME280;23738;50.422;18.758;2023-03-26T18:47:31;97137.41;;;8.13;66.69
37904;BME280;23738;50.422;18.758;2023-03-26T18:50:01;97136.98;;;8.05;66.79
37904;BME280;23738;50.422;18.758;2023-03-26T18:52:32;97131.55;;;8.00;66.74
37904;BME280;23738;50.422;18.758;2023-03-26T18:55:03;97131.94;;;7.99;66.88
37904;BME280;23738;50.422;18.758;2023-03-26T18:57:32;97139.33;;;8.00;67.04
37904;BME280;23738;50.422;18.758;2023-03-26T19:00:17;97135.71;;;8.02;67.19
37904;BME280;23738;50.422;18.758;2023-03-26T19:02:50;97135.79;;;8.04;66.95
37904;BME280;23738;50.422;18.758;2023-03-26T19:05:20;97129.38;;;8.08;67.14
37904;BME280;23738;50.422;18.758;2023-03-26T19:07:50;97128.11;;;8.10;67.13
37904;BME280;23738;50.422;18.758;2023-03-26T19:10:20;97128.64;;;8.10;67.06
37904;BME280;23738;50.422;18.758;2023-03-26T19:12:59;97123.09;;;8.09;67.13